createdAt,value
2019-05-28T00:01:26.340Z,14.45
2019-05-28T00:03:54.907Z,15.30
2019-05-28T00:06:23.655Z,15.38
2019-05-28T00:08:52.223Z,15.60
2019-05-28T00:11:20.786Z,13.85
2019-05-28T00:13:49.367Z,14.50
2019-05-28T00:16:17.936Z,15.38
2019-05-28T00:18:46.511Z,15.32
2019-05-28T00:21:15.083Z,14.05
2019-05-28T00:23:43.668Z,14.93
2019-05-28T00:26:12.231Z,14.35
2019-05-28T00:28:40.813Z,13.88
2019-05-28T00:31:09.386Z,14.07
2019-05-28T00:33:37.954Z,15.95
2019-05-28T00:36:06.537Z,14.78
2019-05-28T00:38:35.104Z,14.93
2019-05-28T00:41:03.778Z,15.55
2019-05-28T00:43:32.352Z,15.72
2019-05-28T00:46:00.923Z,14.80
2019-05-28T00:48:29.491Z,14.93
2019-05-28T00:50:58.086Z,14.55
2019-05-28T00:53:26.644Z,15.50
2019-05-28T00:55:55.747Z,14.85
2019-05-28T00:58:24.593Z,15.10
2019-05-28T01:00:53.395Z,15.18
2019-05-28T01:03:21.981Z,15.98
2019-05-28T01:05:50.539Z,14.58
2019-05-28T01:08:19.197Z,14.50
2019-05-28T01:10:47.760Z,14.13
2019-05-28T01:13:16.327Z,14.50
2019-05-28T01:15:44.891Z,15.80
2019-05-28T01:18:13.453Z,14.83
2019-05-28T01:20:42.589Z,15.90
2019-05-28T01:23:11.151Z,15.15
2019-05-28T01:25:39.986Z,15.38
2019-05-28T01:28:08.551Z,14.70
2019-05-28T01:30:53.500Z,14.70
2019-05-28T01:33:07.347Z,14.38
2019-05-28T01:35:35.940Z,14.55
2019-05-28T01:38:04.586Z,14.18
2019-05-28T01:40:33.230Z,12.65
2019-05-28T01:43:01.792Z,14.35
2019-05-28T01:45:30.500Z,13.45
2019-05-28T01:47:59.084Z,13.10
2019-05-28T01:50:27.659Z,12.68
2019-05-28T01:52:56.303Z,12.80
2019-05-28T01:55:24.868Z,11.60
2019-05-28T01:57:53.436Z,11.80
2019-05-28T02:00:22.636Z,13.03
2019-05-28T02:02:51.243Z,11.97
2019-05-28T02:05:20.221Z,12.58
2019-05-28T02:07:48.782Z,11.65
2019-05-28T02:10:17.959Z,11.85
2019-05-28T02:12:46.534Z,11.25
2019-05-28T02:15:15.860Z,12.37
2019-05-28T02:17:44.423Z,13.38
2019-05-28T02:20:13.733Z,12.35
2019-05-28T02:22:42.302Z,10.20
2019-05-28T02:25:11.603Z,11.93
2019-05-28T02:27:40.171Z,10.45
2019-05-28T02:30:10.897Z,11.97
2019-05-28T02:32:39.545Z,12.43
2019-05-28T02:35:08.744Z,11.03
2019-05-28T02:37:37.401Z,11.48
2019-05-28T02:40:07.756Z,12.07
2019-05-28T02:42:36.394Z,11.30
2019-05-28T02:45:09.761Z,11.25
2019-05-28T02:47:38.583Z,11.75
2019-05-28T02:50:09.497Z,11.73
2019-05-28T02:52:39.198Z,11.28
2019-05-28T02:55:09.970Z,11.93
2019-05-28T02:57:40.747Z,13.18
2019-05-28T03:00:12.404Z,12.25
2019-05-28T03:02:44.056Z,12.50
2019-05-28T03:05:12.971Z,11.75
2019-05-28T03:07:43.752Z,12.88
2019-05-28T03:10:12.568Z,12.80
2019-05-28T03:12:41.138Z,11.48
2019-05-28T03:15:10.049Z,11.33
2019-05-28T03:17:40.622Z,12.03
2019-05-28T03:20:09.541Z,11.95
2019-05-28T03:22:39.539Z,12.75
2019-05-28T03:25:08.639Z,11.75
2019-05-28T03:27:37.292Z,12.73
2019-05-28T03:30:07.753Z,12.37
2019-05-28T03:32:36.336Z,11.95
2019-05-28T03:35:06.648Z,13.15
2019-05-28T03:37:36.962Z,12.68
2019-05-28T03:40:08.852Z,12.85
2019-05-28T03:42:37.429Z,14.07
2019-05-28T03:45:07.442Z,13.28
2019-05-28T03:47:36.020Z,13.93
2019-05-28T03:50:07.088Z,13.10
2019-05-28T03:52:35.654Z,12.80
2019-05-28T03:55:07.034Z,11.65
2019-05-28T03:57:35.602Z,10.93
2019-05-28T04:00:05.428Z,12.20
2019-05-28T04:02:33.980Z,13.43
2019-05-28T04:05:02.574Z,12.13
2019-05-28T04:07:31.162Z,11.68
2019-05-28T04:09:59.728Z,13.43
2019-05-28T04:12:28.364Z,11.50
2019-05-28T04:14:57.003Z,13.20
2019-05-28T04:17:25.576Z,13.65
2019-05-28T04:19:54.151Z,12.73
2019-05-28T04:22:22.728Z,12.73
2019-05-28T04:24:51.375Z,13.72
2019-05-28T04:27:20.226Z,14.25
2019-05-28T04:29:48.803Z,13.65
2019-05-28T04:32:17.396Z,13.20
2019-05-28T04:34:45.951Z,13.35
2019-05-28T04:37:14.527Z,14.03
2019-05-28T04:39:43.097Z,13.20
2019-05-28T04:42:11.717Z,12.60
2019-05-28T04:44:40.345Z,14.93
2019-05-28T04:47:09.108Z,13.15
2019-05-28T04:49:37.865Z,14.43
2019-05-28T04:52:06.472Z,14.07
2019-05-28T04:54:35.065Z,13.72
2019-05-28T04:57:03.731Z,14.05
2019-05-28T04:59:32.332Z,14.55
2019-05-28T05:02:00.905Z,13.30
2019-05-28T05:04:29.492Z,13.75
2019-05-28T05:06:58.060Z,12.10
2019-05-28T05:09:26.913Z,12.30
2019-05-28T05:11:55.502Z,12.03
2019-05-28T05:14:24.052Z,11.48
2019-05-28T05:16:52.633Z,11.53
2019-05-28T05:19:21.251Z,11.57
2019-05-28T05:21:49.830Z,9.68
2019-05-28T05:24:18.417Z,9.63
2019-05-28T05:26:47.002Z,9.20
2019-05-28T05:29:15.552Z,9.03
2019-05-28T05:31:44.190Z,8.93
2019-05-28T05:34:12.775Z,9.03
2019-05-28T05:36:41.388Z,9.00
2019-05-28T05:39:10.017Z,8.45
2019-05-28T05:41:38.569Z,8.45
2019-05-28T05:44:07.166Z,8.70
2019-05-28T05:46:35.704Z,7.25
2019-05-28T05:49:04.419Z,6.97
2019-05-28T05:51:32.989Z,7.97
2019-05-28T05:54:01.551Z,8.38
2019-05-28T05:56:30.113Z,7.20
2019-05-28T05:58:58.687Z,6.50
2019-05-28T06:01:27.281Z,7.35
2019-05-28T06:03:55.856Z,7.33
2019-05-28T06:06:24.412Z,6.55
2019-05-28T06:08:52.972Z,6.80
2019-05-28T06:11:21.535Z,7.60
2019-05-28T06:13:50.174Z,7.40
2019-05-28T06:16:18.755Z,7.45
2019-05-28T06:18:47.339Z,6.97
2019-05-28T06:21:18.866Z,6.05
2019-05-28T06:23:46.148Z,6.83
2019-05-28T06:26:14.828Z,6.70
2019-05-28T06:28:43.357Z,7.17
2019-05-28T06:31:12.261Z,7.20
2019-05-28T06:33:55.636Z,8.03
2019-05-28T06:36:11.228Z,7.03
2019-05-28T06:38:39.768Z,7.53
2019-05-28T06:41:08.327Z,7.17
2019-05-28T06:43:36.902Z,7.80
2019-05-28T06:46:05.468Z,8.80
2019-05-28T06:48:34.028Z,8.88
2019-05-28T06:51:02.636Z,9.38
2019-05-28T06:53:31.195Z,9.40
2019-05-28T06:55:59.773Z,8.55
2019-05-28T06:58:38.524Z,8.60
2019-05-28T07:00:58.710Z,9.03
2019-05-28T07:03:27.253Z,8.73
2019-05-28T07:06:06.432Z,9.50
2019-05-28T07:08:26.035Z,9.33
2019-05-28T07:10:58.084Z,9.38
2019-05-28T07:13:24.874Z,8.23
2019-05-28T07:15:53.452Z,8.68
2019-05-28T07:18:22.022Z,8.90
2019-05-28T07:20:50.583Z,8.90
2019-05-28T07:23:19.160Z,8.90
2019-05-28T07:25:47.741Z,8.10
2019-05-28T07:28:16.314Z,9.05
2019-05-28T07:30:44.886Z,8.80
2019-05-28T07:33:13.471Z,8.13
2019-05-28T07:35:45.803Z,8.88
2019-05-28T07:38:12.238Z,8.85
2019-05-28T07:40:40.807Z,8.55
2019-05-28T07:43:09.409Z,10.30
2019-05-28T07:45:37.983Z,10.50
2019-05-28T07:48:06.541Z,9.13
2019-05-28T07:50:35.142Z,10.08
2019-05-28T07:53:03.889Z,9.50
2019-05-28T07:55:32.566Z,10.03
2019-05-28T07:58:01.136Z,10.00
2019-05-28T08:00:40.611Z,8.88
2019-05-28T08:03:09.981Z,8.70
2019-05-28T08:05:38.748Z,9.20
2019-05-28T08:08:09.702Z,8.90
2019-05-28T08:10:38.511Z,9.83
2019-05-28T08:13:07.226Z,9.90
2019-05-28T08:15:37.322Z,8.98
2019-05-28T08:18:06.165Z,10.08
2019-05-28T08:20:35.075Z,10.95
2019-05-28T08:23:03.791Z,10.30
2019-05-28T08:25:45.983Z,11.00
2019-05-28T08:28:18.801Z,8.43
2019-05-28T08:30:33.273Z,8.85
2019-05-28T08:33:01.832Z,8.08
2019-05-28T08:35:30.400Z,8.90
2019-05-28T08:37:58.969Z,10.13
2019-05-28T08:40:27.951Z,10.30
2019-05-28T08:42:56.623Z,8.70
2019-05-28T08:45:25.253Z,9.28
2019-05-28T08:47:53.814Z,9.33
2019-05-28T08:50:34.021Z,9.48
2019-05-28T08:52:52.680Z,10.68
2019-05-28T08:55:21.235Z,9.95
2019-05-28T08:57:49.818Z,10.50
2019-05-28T09:00:44.097Z,10.13
2019-05-28T09:03:13.677Z,11.38
2019-05-28T09:05:42.315Z,12.37
2019-05-28T09:08:10.885Z,11.68
2019-05-28T09:10:39.471Z,13.03
2019-05-28T09:13:08.033Z,15.00
2019-05-28T09:15:36.873Z,14.35
2019-05-28T09:18:05.805Z,13.70
2019-05-28T09:20:34.829Z,15.18
2019-05-28T09:23:03.478Z,16.27
2019-05-28T09:25:32.031Z,15.10
2019-05-28T09:28:00.641Z,16.82
2019-05-28T09:30:29.429Z,16.37
2019-05-28T09:32:58.022Z,17.60
2019-05-28T09:35:43.406Z,18.00
2019-05-28T09:37:56.785Z,18.37
2019-05-28T09:40:26.224Z,20.50
2019-05-28T09:42:54.783Z,18.95
2019-05-28T09:45:23.667Z,19.62
2019-05-28T09:47:55.135Z,21.60
2019-05-28T09:50:30.472Z,19.90
2019-05-28T09:52:55.000Z,23.60
2019-05-28T09:55:23.251Z,24.45
2019-05-28T09:57:51.830Z,24.43
2019-05-28T10:00:23.045Z,23.50
2019-05-28T10:02:52.037Z,24.37
2019-05-28T10:05:21.347Z,26.10
2019-05-28T10:07:50.452Z,25.50
2019-05-28T10:10:19.559Z,23.98
2019-05-28T10:12:48.134Z,25.92
2019-05-28T10:15:17.445Z,24.40
2019-05-28T10:17:46.025Z,24.37
2019-05-28T10:20:15.540Z,25.57
2019-05-28T10:22:44.172Z,24.23
2019-05-28T10:25:14.924Z,24.45
2019-05-28T10:27:59.250Z,23.05
2019-05-28T10:30:14.441Z,24.35
2019-05-28T10:32:43.003Z,22.80
2019-05-28T10:35:11.907Z,24.15
2019-05-28T10:37:40.551Z,21.37
2019-05-28T10:40:11.041Z,23.12
2019-05-28T10:42:39.599Z,22.60
2019-05-28T10:45:10.621Z,24.30
2019-05-28T10:47:40.856Z,23.52
2019-05-28T10:50:09.884Z,23.60
2019-05-28T10:52:38.456Z,25.35
2019-05-28T10:55:07.773Z,24.32
2019-05-28T10:57:36.343Z,24.95
2019-05-28T11:00:08.942Z,20.75
2019-05-28T11:02:37.457Z,19.65
2019-05-28T11:05:08.335Z,9.63
2019-05-28T11:07:36.903Z,8.43
2019-05-28T11:10:22.518Z,8.08
2019-05-28T11:12:38.003Z,7.87
2019-05-28T11:15:08.018Z,8.30
2019-05-28T11:17:36.754Z,7.40
2019-05-28T11:20:08.585Z,7.87
2019-05-28T11:22:37.215Z,7.92
2019-05-28T11:25:07.424Z,6.75
2019-05-28T11:27:36.139Z,7.37
2019-05-28T11:30:08.023Z,7.28
2019-05-28T11:32:36.603Z,6.55
2019-05-28T11:35:07.313Z,6.30
2019-05-28T11:37:35.816Z,8.20
2019-05-28T11:40:08.023Z,6.87
2019-05-28T11:42:36.596Z,6.72
2019-05-28T11:45:07.987Z,5.90
2019-05-28T11:47:36.875Z,6.65
2019-05-28T11:50:09.914Z,7.17
2019-05-28T11:52:38.479Z,7.60
2019-05-28T11:55:12.674Z,6.92
2019-05-28T12:00:09.354Z,7.55
2019-05-28T12:02:37.928Z,7.65
2019-05-28T12:05:08.335Z,6.70
2019-05-28T12:07:36.904Z,6.08
2019-05-28T12:10:06.913Z,7.08
2019-05-28T12:12:37.111Z,7.53
2019-05-28T12:15:10.919Z,7.72
2019-05-28T12:17:43.413Z,7.03
2019-05-28T12:20:11.043Z,6.28
2019-05-28T12:22:39.745Z,7.08
2019-05-28T12:25:09.760Z,6.45
2019-05-28T12:27:38.318Z,6.50
2019-05-28T12:30:09.534Z,5.87
2019-05-28T12:32:39.039Z,6.53
2019-05-28T12:35:26.665Z,6.28
2019-05-28T12:37:47.957Z,6.35
2019-05-28T12:40:09.351Z,5.50
2019-05-28T12:42:37.921Z,5.12
2019-05-28T12:45:13.530Z,5.65
2019-05-28T12:47:42.238Z,5.22
2019-05-28T12:50:19.892Z,5.25
2019-05-28T12:52:46.749Z,5.28
2019-05-28T12:55:14.308Z,5.60
2019-05-28T12:57:42.925Z,5.47
2019-05-28T13:00:13.525Z,6.42
2019-05-28T13:02:42.107Z,5.97
2019-05-28T13:05:13.761Z,5.60
2019-05-28T13:07:42.332Z,6.08
2019-05-28T13:10:12.740Z,5.50
2019-05-28T13:12:41.336Z,5.17
2019-05-28T13:15:10.448Z,6.17
2019-05-28T13:17:39.061Z,6.42
2019-05-28T13:20:08.822Z,6.75
2019-05-28T13:22:37.534Z,6.90
2019-05-28T13:25:07.313Z,7.60
2019-05-28T13:27:36.022Z,7.03
2019-05-28T13:30:08.035Z,7.25
2019-05-28T13:32:36.980Z,6.90
2019-05-28T13:35:10.145Z,5.53
2019-05-28T13:37:38.768Z,4.33
2019-05-28T13:40:08.878Z,4.67
2019-05-28T13:42:37.470Z,4.30
2019-05-28T13:45:07.676Z,3.90
2019-05-28T13:47:36.402Z,3.83
2019-05-28T13:50:06.503Z,4.42
2019-05-28T13:52:35.075Z,3.58
2019-05-28T13:55:05.542Z,4.45
2019-05-28T13:57:38.746Z,4.33
2019-05-28T14:00:10.182Z,4.15
2019-05-28T14:02:38.814Z,4.25
2019-05-28T14:05:08.241Z,4.90
2019-05-28T14:07:37.899Z,5.45
2019-05-28T14:10:08.288Z,4.72
2019-05-28T14:12:36.850Z,6.03
2019-05-28T14:15:06.652Z,6.47
2019-05-28T14:17:35.220Z,6.42
2019-05-28T14:20:09.520Z,7.53
2019-05-28T14:22:38.294Z,7.22
2019-05-28T14:25:08.696Z,7.85
2019-05-28T14:27:37.356Z,6.80
2019-05-28T14:30:08.646Z,7.35
2019-05-28T14:32:37.229Z,6.40
2019-05-28T14:35:07.520Z,6.30
2019-05-28T14:37:36.208Z,6.10
2019-05-28T14:40:06.989Z,7.22
2019-05-28T14:42:35.561Z,7.80
2019-05-28T14:45:06.167Z,6.85
2019-05-28T14:47:34.758Z,7.62
2019-05-28T14:50:04.660Z,6.97
2019-05-28T14:52:33.228Z,7.08
2019-05-28T14:55:01.824Z,7.78
2019-05-28T14:57:30.374Z,7.37
2019-05-28T14:59:58.932Z,7.65
2019-05-28T15:02:27.522Z,7.30
2019-05-28T15:04:56.390Z,7.65
2019-05-28T15:07:24.932Z,6.47
2019-05-28T15:09:53.510Z,4.95
2019-05-28T15:12:41.434Z,4.62
2019-05-28T15:15:12.477Z,4.00
2019-05-28T15:17:41.041Z,3.27
2019-05-28T15:20:11.840Z,2.85
2019-05-28T15:22:40.415Z,2.62
2019-05-28T15:25:09.559Z,3.30
2019-05-28T15:27:38.183Z,2.98
2019-05-28T15:30:11.861Z,2.70
2019-05-28T15:32:40.432Z,2.72
2019-05-28T15:35:10.426Z,2.47
2019-05-28T15:37:39.099Z,3.40
2019-05-28T15:40:08.506Z,3.37
2019-05-28T15:42:37.178Z,2.85
2019-05-28T15:45:08.074Z,3.00
2019-05-28T15:47:37.765Z,3.20
2019-05-28T15:50:08.279Z,2.90
2019-05-28T15:52:37.157Z,2.92
2019-05-28T15:55:07.659Z,2.85
2019-05-28T15:57:36.191Z,3.20
2019-05-28T16:00:13.849Z,3.22
2019-05-28T16:02:42.400Z,3.40
2019-05-28T16:05:11.447Z,3.45
2019-05-28T16:07:40.013Z,3.52
2019-05-28T16:10:09.134Z,7.85
2019-05-28T16:12:37.703Z,3.87
2019-05-28T16:15:11.132Z,3.30
2019-05-28T16:17:39.669Z,3.90
2019-05-28T16:20:09.286Z,3.83
2019-05-28T16:22:38.040Z,4.50
2019-05-28T16:25:10.617Z,4.45
2019-05-28T16:27:39.193Z,4.47
2019-05-28T16:30:08.787Z,4.22
2019-05-28T16:32:37.361Z,4.75
2019-05-28T16:35:06.963Z,5.03
2019-05-28T16:37:35.735Z,5.80
2019-05-28T16:40:14.818Z,4.85
2019-05-28T16:42:37.716Z,4.17
2019-05-28T16:45:07.154Z,4.80
2019-05-28T16:47:35.735Z,5.47
2019-05-28T16:50:05.529Z,5.30
2019-05-28T16:52:34.215Z,5.17
2019-05-28T16:55:02.929Z,5.47
2019-05-28T16:57:31.488Z,5.53
2019-05-28T17:00:00.067Z,4.80
2019-05-28T17:02:28.628Z,5.78
2019-05-28T17:04:57.387Z,5.33
2019-05-28T17:07:25.924Z,5.15
2019-05-28T17:09:54.756Z,6.33
2019-05-28T17:12:23.314Z,5.90
2019-05-28T17:14:51.905Z,5.58
2019-05-28T17:17:20.468Z,4.60
2019-05-28T17:19:49.071Z,4.90
2019-05-28T17:22:17.625Z,5.33
2019-05-28T17:24:46.291Z,4.67
2019-05-28T17:27:14.833Z,4.83
2019-05-28T17:29:43.383Z,4.33
2019-05-28T17:32:11.960Z,4.25
2019-05-28T17:34:40.842Z,4.62
2019-05-28T17:37:09.399Z,5.25
2019-05-28T17:39:37.984Z,5.20
2019-05-28T17:42:06.539Z,5.05
2019-05-28T17:44:35.114Z,5.40
2019-05-28T17:47:03.682Z,5.28
2019-05-28T17:49:32.268Z,5.67
2019-05-28T17:52:00.846Z,5.70
2019-05-28T17:54:29.510Z,5.62
2019-05-28T17:56:58.064Z,5.05
2019-05-28T17:59:26.648Z,5.70
2019-05-28T18:01:55.232Z,6.35
2019-05-28T18:04:23.807Z,5.17
2019-05-28T18:06:52.384Z,5.22
2019-05-28T18:09:20.962Z,5.50
2019-05-28T18:11:49.519Z,6.37
2019-05-28T18:14:18.094Z,5.80
2019-05-28T18:16:46.667Z,5.62
2019-05-28T18:19:15.227Z,6.08
2019-05-28T18:21:43.791Z,5.90
2019-05-28T18:24:12.392Z,6.25
2019-05-28T18:26:40.993Z,5.97
2019-05-28T18:29:09.987Z,6.45
2019-05-28T18:31:38.514Z,6.00
2019-05-28T18:34:07.189Z,5.72
2019-05-28T18:36:35.895Z,5.70
2019-05-28T18:39:06.395Z,5.67
2019-05-28T18:41:35.661Z,6.42
2019-05-28T18:44:05.293Z,5.33
2019-05-28T18:46:34.258Z,6.17
2019-05-28T18:49:03.352Z,5.45
2019-05-28T18:51:34.395Z,5.62
2019-05-28T18:54:02.968Z,5.80
2019-05-28T18:56:31.865Z,5.05
2019-05-28T18:59:00.866Z,5.90
2019-05-28T19:01:29.561Z,5.92
2019-05-28T19:03:58.747Z,5.17
2019-05-28T19:06:47.192Z,5.65
2019-05-28T19:09:16.296Z,5.50
2019-05-28T19:11:45.483Z,5.40
2019-05-28T19:14:14.577Z,4.55
2019-05-28T19:16:43.679Z,5.35
2019-05-28T19:19:13.388Z,5.65
2019-05-28T19:21:42.478Z,5.12
2019-05-28T19:24:11.328Z,4.85
2019-05-28T19:26:40.019Z,4.47
2019-05-28T19:29:09.293Z,4.08
2019-05-28T19:31:38.861Z,4.72
2019-05-28T19:34:08.977Z,5.00
2019-05-28T19:36:38.547Z,5.05
2019-05-28T19:39:09.174Z,4.10
2019-05-28T19:41:52.311Z,4.20
2019-05-28T19:44:08.961Z,4.17
2019-05-28T19:46:38.142Z,4.60
2019-05-28T19:49:07.682Z,3.83
2019-05-28T19:51:36.485Z,4.70
2019-05-28T19:54:06.597Z,3.92
2019-05-28T19:56:35.644Z,4.15
2019-05-28T19:59:12.521Z,3.75
2019-05-28T20:01:38.054Z,4.22
2019-05-28T20:04:07.178Z,3.72
2019-05-28T20:06:36.216Z,4.33
2019-05-28T20:09:07.628Z,3.62
2019-05-28T20:11:36.432Z,4.03
2019-05-28T20:14:05.730Z,3.45
2019-05-28T20:16:34.747Z,4.17
2019-05-28T20:19:05.094Z,3.85
2019-05-28T20:21:33.826Z,4.15
2019-05-28T20:24:02.583Z,3.90
2019-05-28T20:26:31.109Z,3.50
2019-05-28T20:29:08.537Z,4.03
2019-05-28T20:31:34.247Z,3.42
2019-05-28T20:34:05.256Z,4.00
2019-05-28T20:36:34.423Z,4.12
2019-05-28T20:39:03.645Z,3.70
2019-05-28T20:41:32.295Z,3.58
2019-05-28T20:44:00.698Z,3.52
2019-05-28T20:46:29.142Z,3.35
2019-05-28T20:48:57.549Z,3.70
2019-05-28T20:51:25.980Z,2.77
2019-05-28T20:53:54.397Z,3.05
2019-05-28T20:56:22.807Z,2.87
2019-05-28T20:58:51.756Z,3.20
2019-05-28T21:01:20.313Z,3.02
2019-05-28T21:03:49.737Z,2.83
2019-05-28T21:06:18.316Z,2.75
2019-05-28T21:08:47.976Z,2.52
2019-05-28T21:11:16.622Z,3.17
2019-05-28T21:13:45.022Z,3.12
2019-05-28T21:16:13.440Z,3.58
2019-05-28T21:18:41.881Z,2.75
2019-05-28T21:21:10.297Z,2.95
2019-05-28T21:23:38.719Z,3.33
2019-05-28T21:26:07.164Z,2.92
2019-05-28T21:28:35.575Z,3.10
2019-05-28T21:31:03.997Z,3.50
2019-05-28T21:33:32.425Z,2.90
2019-05-28T21:36:01.472Z,3.10
2019-05-28T21:38:30.059Z,2.90
2019-05-28T21:40:59.766Z,3.35
2019-05-28T21:43:28.349Z,3.12
2019-05-28T21:45:58.054Z,3.30
2019-05-28T21:48:26.824Z,3.92
2019-05-28T21:50:55.229Z,3.35
2019-05-28T21:53:23.649Z,4.00
2019-05-28T21:55:53.079Z,3.70
2019-05-28T21:58:21.641Z,4.20
2019-05-28T22:00:55.976Z,4.05
2019-05-28T22:03:24.495Z,4.20
2019-05-28T22:05:52.913Z,4.67
2019-05-28T22:08:21.361Z,5.00
2019-05-28T22:10:49.768Z,5.08
2019-05-28T22:13:22.228Z,4.78
2019-05-28T22:15:48.489Z,5.10
2019-05-28T22:18:16.936Z,4.95
2019-05-28T22:20:45.387Z,4.78
2019-05-28T22:23:13.799Z,5.05
2019-05-28T22:25:42.217Z,5.40
2019-05-28T22:28:10.691Z,4.78
2019-05-28T22:30:39.373Z,5.20
2019-05-28T22:33:08.428Z,5.50
2019-05-28T22:35:37.039Z,5.45
2019-05-28T22:38:05.550Z,6.25
2019-05-28T22:40:34.006Z,5.70
2019-05-28T22:43:03.574Z,5.05
2019-05-28T22:45:32.386Z,6.05
2019-05-28T22:48:02.200Z,4.85
2019-05-28T22:50:31.001Z,5.58
2019-05-28T22:52:59.858Z,6.92
2019-05-28T22:55:28.432Z,5.75
2019-05-28T22:57:58.083Z,6.58
2019-05-28T23:00:26.765Z,7.00
2019-05-28T23:02:55.167Z,7.35
2019-05-28T23:05:23.592Z,7.67
2019-05-28T23:07:52.298Z,7.05
2019-05-28T23:10:20.903Z,7.03
2019-05-28T23:12:49.322Z,7.37
2019-05-28T23:15:18.448Z,7.92
2019-05-28T23:17:46.858Z,7.28
2019-05-28T23:20:15.727Z,7.40
2019-05-28T23:22:44.188Z,8.58
2019-05-28T23:25:14.294Z,8.40
2019-05-28T23:27:42.745Z,8.63
2019-05-28T23:30:24.380Z,9.00
2019-05-28T23:32:41.976Z,8.93
2019-05-28T23:35:10.937Z,9.05
2019-05-28T23:37:39.351Z,9.25
2019-05-28T23:40:09.604Z,8.48
2019-05-28T23:42:38.184Z,8.40
2019-05-28T23:45:07.793Z,8.98
2019-05-28T23:47:36.342Z,8.68
2019-05-28T23:50:06.758Z,8.70
2019-05-28T23:52:35.275Z,9.05
2019-05-28T23:55:05.743Z,9.45
2019-05-28T23:57:34.216Z,8.13
